Time;durP1;ratioP1;P1;durP2;ratioP2;P2;SDS_P1;SDS_P2;PMS_P1;PMS_P2;Temp;Humidity;BMP_temperature;BMP_pressure;BME280_temperature;BME280_humidity;BME280_pressure;Samples;Min_cycle;Max_cycle;Signal;HPM_P1;HPM_P2
2023/01/15 00:01:18;;;;;;;0.57;0.50;;;;;;;10.02;100.00;96934.94;5090093;28;20345;-71
2023/01/15 00:03:45;;;;;;;0.40;0.40;;;;;;;10.05;100.00;96940.59;5090201;28;20211;-71
2023/01/15 00:06:11;;;;;;;1.37;0.50;;;;;;;10.09;100.00;96931.13;5090059;28;20210;-71
2023/01/15 00:08:37;;;;;;;1.70;0.50;;;;;;;10.12;100.00;96919.19;5090088;28;20200;-71
2023/01/15 00:11:05;;;;;;;0.40;0.40;;;;;;;10.07;100.00;96909.31;5089869;28;20204;-71
2023/01/15 00:13:31;;;;;;;0.43;0.43;;;;;;;10.19;100.00;96894.06;5089586;28;20231;-71
2023/01/15 00:16:09;;;;;;;0.50;0.50;;;;;;;10.16;100.00;96896.41;5090030;28;20211;-71
2023/01/15 00:18:36;;;;;;;0.40;0.40;;;;;;;10.13;100.00;96912.84;5089832;28;20200;-71
2023/01/15 00:21:05;;;;;;;0.50;0.50;;;;;;;10.08;100.00;96897.66;5089442;28;20667;-71
2023/01/15 00:29:02;;;;;;;1.27;0.50;;;;;;;10.38;100.00;96882.16;5076074;28;20225;-71
2023/01/15 00:31:30;;;;;;;0.30;0.30;;;;;;;10.28;100.00;96881.19;5076103;28;20311;-71
2023/01/15 00:33:56;;;;;;;0.70;0.70;;;;;;;10.32;100.00;96883.09;5076121;28;20231;-71
2023/01/15 00:36:24;;;;;;;1.13;0.50;;;;;;;10.34;100.00;96889.00;5075789;28;20215;-71
2023/01/15 00:38:51;;;;;;;0.57;0.50;;;;;;;10.41;100.00;96868.34;5076034;28;20292;-71
2023/01/15 00:41:17;;;;;;;0.50;0.50;;;;;;;10.40;100.00;96863.28;5075934;28;20270;-71
2023/01/15 00:43:44;;;;;;;0.40;0.40;;;;;;;10.38;100.00;96852.09;5075983;28;20296;-71
2023/01/15 00:46:10;;;;;;;0.40;0.40;;;;;;;10.46;100.00;96841.06;5075781;28;20215;-71
2023/01/15 00:48:37;;;;;;;0.40;0.40;;;;;;;10.32;100.00;96853.88;5075869;28;20205;-71
2023/01/15 00:51:04;;;;;;;1.33;0.50;;;;;;;10.35;100.00;96844.63;5076314;28;20208;-71
2023/01/15 00:53:31;;;;;;;0.90;0.40;;;;;;;10.27;100.00;96848.50;5075735;28;20224;-71
2023/01/15 00:55:58;;;;;;;2.17;0.70;;;;;;;10.35;100.00;96840.13;5075491;28;20209;-71
2023/01/15 00:58:24;;;;;;;0.93;0.40;;;;;;;10.31;100.00;96836.34;5075443;28;20219;-71
2023/01/15 01:00:58;;;;;;;0.40;0.40;;;;;;;10.21;100.00;96835.41;5075495;28;20553;-71
2023/01/15 01:03:24;;;;;;;0.43;0.43;;;;;;;10.26;100.00;96822.19;5075596;28;20207;-71
2023/01/15 01:05:51;;;;;;;1.57;0.40;;;;;;;10.25;100.00;96817.94;5075236;28;20209;-71
2023/01/15 01:08:17;;;;;;;1.37;0.50;;;;;;;10.20;100.00;96808.06;5075238;28;20686;-71
2023/01/15 01:10:44;;;;;;;0.40;0.40;;;;;;;10.26;100.00;96822.19;5075477;28;20216;-71
2023/01/15 01:13:11;;;;;;;1.17;0.43;;;;;;;10.36;100.00;96809.06;5074924;28;20689;-71
2023/01/15 01:15:38;;;;;;;0.50;0.50;;;;;;;10.33;100.00;96812.19;5075102;28;20565;-71
2023/01/15 01:18:05;;;;;;;0.50;0.40;;;;;;;10.24;100.00;96813.69;5075117;28;20568;-71
2023/01/15 01:20:33;;;;;;;0.30;0.30;;;;;;;10.38;100.00;96807.75;5075063;28;20231;-71
2023/01/15 01:23:00;;;;;;;0.50;0.50;;;;;;;10.29;100.00;96824.38;5075190;28;20220;-71
2023/01/15 01:25:26;;;;;;;0.97;0.40;;;;;;;10.23;100.00;96820.03;5075500;28;20216;-71
2023/01/15 01:27:52;;;;;;;1.37;0.60;;;;;;;10.23;100.00;96814.75;5074728;28;20664;-71
2023/01/15 01:30:19;;;;;;;1.23;0.40;;;;;;;10.15;100.00;96815.16;5075061;28;20311;-71
2023/01/15 01:32:45;;;;;;;0.30;0.30;;;;;;;10.12;100.00;96815.63;5074996;28;20232;-71
2023/01/15 01:35:12;;;;;;;0.40;0.40;;;;;;;10.16;100.00;96809.59;5074146;28;20211;-71
2023/01/15 01:37:38;;;;;;;1.37;0.53;;;;;;;10.15;100.00;96817.81;5074688;28;20204;-72
2023/01/15 01:40:05;;;;;;;0.50;0.40;;;;;;;10.23;100.00;96814.75;5074861;28;20217;-71
2023/01/15 01:42:32;;;;;;;0.40;0.40;;;;;;;10.22;100.00;96815.75;5074739;28;20220;-71
2023/01/15 01:45:05;;;;;;;0.40;0.40;;;;;;;10.23;100.00;96804.13;5074757;28;20204;-73
2023/01/15 01:47:33;;;;;;;0.40;0.40;;;;;;;10.19;100.00;96792.38;5074480;28;20218;-73
2023/01/15 01:50:10;;;;;;;0.30;0.30;;;;;;;10.18;100.00;96799.53;5073546;28;20209;-73
2023/01/15 01:52:51;;;;;;;1.07;0.30;;;;;;;10.31;100.00;96780.56;5075095;28;20237;-73
2023/01/15 01:55:22;;;;;;;0.40;0.40;;;;;;;10.24;100.00;96787.13;5073526;28;20185;-73
2023/01/15 01:57:51;;;;;;;0.50;0.50;;;;;;;10.27;100.00;96781.31;5075628;28;20211;-73
2023/01/15 02:00:18;;;;;;;0.40;0.40;;;;;;;10.33;100.00;96777.66;5073315;28;20211;-73
2023/01/15 02:02:48;;;;;;;1.03;0.50;;;;;;;10.29;100.00;96768.59;5073193;28;20220;-73
2023/01/15 02:05:23;;;;;;;1.17;0.50;;;;;;;10.28;100.00;96769.66;5074112;28;20219;-73
2023/01/15 02:07:50;;;;;;;0.30;0.30;;;;;;;10.19;100.00;96771.91;5074468;28;20570;-73
2023/01/15 02:10:17;;;;;;;0.87;0.40;;;;;;;10.30;100.00;96778.97;5074347;28;20215;-73
2023/01/15 02:12:53;;;;;;;0.47;0.40;;;;;;;10.35;100.00;96770.25;5073775;28;20596;-73
2023/01/15 02:15:29;;;;;;;0.37;0.37;;;;;;;10.24;100.00;96758.72;5074265;28;20196;-73
2023/01/15 02:18:05;;;;;;;0.30;0.30;;;;;;;10.27;100.00;96754.75;5073872;28;20701;-73
2023/01/15 02:20:41;;;;;;;0.50;0.40;;;;;;;10.26;100.00;96742.50;5073059;28;20275;-73
2023/01/15 02:23:26;;;;;;;0.23;0.23;;;;;;;10.35;100.00;96735.72;5073707;28;20227;-73
2023/01/15 02:26:36;;;;;;;0.40;0.30;;;;;;;10.49;100.00;96751.03;5073801;28;20640;-73
2023/01/15 02:29:07;;;;;;;0.67;0.30;;;;;;;10.55;100.00;96742.03;5073894;28;20189;-73
2023/01/15 02:31:37;;;;;;;0.30;0.30;;;;;;;10.55;100.00;96739.38;5072681;28;20276;-73
2023/01/15 02:34:13;;;;;;;0.43;0.40;;;;;;;10.74;100.00;96723.91;5073559;28;20695;-73
2023/01/15 02:36:46;;;;;;;1.13;0.20;;;;;;;10.90;100.00;96725.63;5072773;28;20184;-73
2023/01/15 02:39:16;;;;;;;0.30;0.30;;;;;;;10.83;100.00;96733.03;5074372;28;20189;-73
2023/01/15 02:41:50;;;;;;;0.30;0.30;;;;;;;10.73;100.00;96733.72;5073748;28;20224;-73
2023/01/15 02:44:19;;;;;;;0.30;0.30;;;;;;;10.69;100.00;96739.81;5073512;28;20661;-73
2023/01/15 02:46:47;;;;;;;1.03;0.30;;;;;;;10.82;100.00;96737.53;5073162;28;20678;-73
2023/01/15 02:49:18;;;;;;;0.40;0.40;;;;;;;10.85;100.00;96731.72;5073431;28;20208;-73
2023/01/15 02:51:51;;;;;;;0.87;0.30;;;;;;;10.88;100.00;96735.72;5073376;28;20232;-73
2023/01/15 02:54:20;;;;;;;0.30;0.30;;;;;;;10.95;100.00;96728.34;5073673;28;20208;-73
2023/01/15 02:56:48;;;;;;;0.20;0.20;;;;;;;10.79;100.00;96740.69;5073272;28;20204;-73
2023/01/15 02:59:22;;;;;;;0.20;0.20;;;;;;;10.81;100.00;96735.91;5073524;28;20204;-73
2023/01/15 03:01:57;;;;;;;1.70;0.30;;;;;;;10.71;100.00;96727.06;5073523;28;20228;-73
2023/01/15 03:04:56;;;;;;;0.37;0.30;;;;;;;10.82;100.00;96726.88;5072418;28;20193;-73
2023/01/15 03:07:32;;;;;;;0.47;0.33;;;;;;;10.88;100.00;96733.06;5072309;28;20191;-73
2023/01/15 03:09:59;;;;;;;0.40;0.30;;;;;;;10.90;100.00;96723.78;5073624;28;20216;-73
2023/01/15 03:18:10;;;;;;;1.87;0.30;;;;;;;10.91;100.00;96717.41;5072773;28;20196;-73
2023/01/15 03:20:42;;;;;;;0.50;0.30;;;;;;;10.93;100.00;96711.84;5073271;28;20207;-73
2023/01/15 03:23:13;;;;;;;0.30;0.30;;;;;;;10.88;100.00;96698.50;5073228;28;20227;-73
2023/01/15 03:25:46;;;;;;;2.67;0.30;;;;;;;10.80;100.00;96694.44;5073002;28;20189;-73
2023/01/15 03:28:16;;;;;;;0.27;0.27;;;;;;;10.81;100.00;96700.56;5073269;28;20185;-73
2023/01/15 03:30:43;;;;;;;0.97;0.30;;;;;;;11.00;100.00;96691.16;5072871;28;20667;-71
2023/01/15 03:33:10;;;;;;;0.40;0.40;;;;;;;11.13;100.00;96696.06;5072743;28;20315;-73
2023/01/15 03:35:51;;;;;;;0.27;0.27;;;;;;;11.19;100.00;96692.38;5073079;28;20231;-73
2023/01/15 03:38:21;;;;;;;0.53;0.20;;;;;;;11.26;100.00;96686.81;5072771;28;20776;-73
2023/01/15 03:41:15;;;;;;;0.30;0.30;;;;;;;11.25;100.00;96696.66;5072684;28;20208;-73
2023/01/15 03:44:02;;;;;;;0.30;0.30;;;;;;;11.53;100.00;96682.22;5072733;28;20314;-73
2023/01/15 03:46:37;;;;;;;0.30;0.30;;;;;;;11.60;100.00;96672.97;5071505;28;20185;-73
2023/01/15 03:49:30;;;;;;;0.70;0.40;;;;;;;11.60;100.00;96688.13;5072948;28;20207;-73
2023/01/15 03:52:05;;;;;;;0.30;0.30;;;;;;;11.67;100.00;96689.47;5072870;28;20236;-73
2023/01/15 03:54:53;;;;;;;0.93;0.30;;;;;;;11.47;100.00;96694.69;5072587;28;20675;-73
2023/01/15 03:57:44;;;;;;;0.47;0.40;;;;;;;11.52;100.00;96665.44;5071749;28;20231;-73
2023/01/15 04:00:25;;;;;;;0.33;0.30;;;;;;;11.72;100.00;96680.75;5075839;28;20193;-72
2023/01/15 04:02:55;;;;;;;0.20;0.20;;;;;;;11.63;100.00;96688.44;5075287;28;20250;-70
2023/01/15 04:05:22;;;;;;;0.20;0.20;;;;;;;11.64;100.00;96684.69;5076341;28;20208;-71
2023/01/15 04:07:50;;;;;;;0.30;0.30;;;;;;;11.75;100.00;96685.56;5076320;28;20201;-71
2023/01/15 04:10:16;;;;;;;0.27;0.20;;;;;;;11.72;100.00;96680.75;5076330;28;20201;-71
2023/01/15 04:12:43;;;;;;;0.20;0.20;;;;;;;11.70;100.00;96661.56;5075815;28;20233;-71
2023/01/15 04:15:11;;;;;;;0.30;0.30;;;;;;;11.57;100.00;96651.34;5076183;28;20654;-73
2023/01/15 04:17:38;;;;;;;0.30;0.30;;;;;;;11.65;100.00;96661.53;5076121;28;20215;-71
2023/01/15 04:20:05;;;;;;;0.30;0.30;;;;;;;11.92;98.18;96665.66;5076198;28;20213;-70
2023/01/15 04:22:32;;;;;;;0.37;0.37;;;;;;;11.83;98.93;96655.75;5076240;28;20230;-71
2023/01/15 04:24:59;;;;;;;0.30;0.30;;;;;;;11.86;98.01;96653.38;5077104;28;20208;-71
2023/01/15 04:27:26;;;;;;;0.30;0.30;;;;;;;11.95;96.90;96648.34;5076104;28;20209;-70
2023/01/15 04:29:52;;;;;;;1.50;0.30;;;;;;;11.98;96.49;96653.16;5076170;28;20207;-71
2023/01/15 04:32:18;;;;;;;0.20;0.20;;;;;;;11.95;96.52;96646.50;5075766;28;20221;-71
2023/01/15 04:34:45;;;;;;;0.20;0.20;;;;;;;11.98;96.56;96642.50;5075922;28;20230;-71
2023/01/15 04:37:11;;;;;;;0.30;0.30;;;;;;;11.91;96.54;96652.59;5075690;28;20662;-71
2023/01/15 04:39:38;;;;;;;0.73;0.40;;;;;;;11.85;97.23;96643.78;5075768;28;20208;-71
2023/01/15 04:44:48;;;;;;;0.20;0.20;;;;;;;11.98;95.92;96645.94;5075657;28;20528;-70
2023/01/15 04:47:14;;;;;;;0.20;0.20;;;;;;;12.02;95.61;96638.25;5075891;28;20209;-71
2023/01/15 04:49:40;;;;;;;0.20;0.20;;;;;;;11.84;97.26;96636.84;5075914;28;20210;-71
2023/01/15 04:52:07;;;;;;;0.23;0.23;;;;;;;11.89;97.08;96650.19;5075774;28;20238;-71
2023/01/15 04:54:33;;;;;;;0.30;0.30;;;;;;;11.85;96.82;96651.75;5075387;28;20711;-71
2023/01/15 04:57:00;;;;;;;0.23;0.23;;;;;;;11.96;96.13;96655.28;5075444;28;20209;-71
2023/01/15 04:59:27;;;;;;;0.20;0.20;;;;;;;12.01;95.08;96636.63;5075574;28;20204;-71
2023/01/15 05:01:54;;;;;;;0.47;0.30;;;;;;;11.93;96.19;96639.84;5075562;28;20307;-70
2023/01/15 05:04:21;;;;;;;0.30;0.30;;;;;;;11.94;96.11;96636.09;5075293;28;20209;-71
2023/01/15 05:06:47;;;;;;;0.20;0.20;;;;;;;12.01;95.77;96640.13;5075382;28;20213;-71
2023/01/15 05:09:13;;;;;;;0.40;0.30;;;;;;;11.93;97.03;96635.28;5075432;28;20208;-71
2023/01/15 05:11:40;;;;;;;0.20;0.20;;;;;;;11.93;96.95;96640.63;5074913;28;20245;-70
2023/01/15 05:14:07;;;;;;;0.27;0.27;;;;;;;11.89;98.03;96644.84;5075176;28;20227;-71
2023/01/15 05:16:34;;;;;;;0.43;0.33;;;;;;;11.84;98.99;96666.16;5075247;28;20205;-71
2023/01/15 05:19:03;;;;;;;0.30;0.30;;;;;;;11.83;100.00;96707.16;5074939;28;20208;-71
2023/01/15 05:21:32;;;;;;;0.50;0.30;;;;;;;10.51;100.00;96711.69;5074846;28;20726;-70
2023/01/15 05:24:00;;;;;;;1.20;0.30;;;;;;;9.68;100.00;96729.03;5074859;28;20562;-70
2023/01/15 05:26:28;;;;;;;0.67;0.33;;;;;;;9.32;100.00;96727.69;5075200;28;20201;-70
2023/01/15 05:28:55;;;;;;;1.13;0.30;;;;;;;9.12;100.00;96726.59;5075970;28;20215;-70
2023/01/15 05:31:23;;;;;;;0.30;0.30;;;;;;;8.89;100.00;96748.78;5075575;28;20229;-69
2023/01/15 05:33:50;;;;;;;0.20;0.20;;;;;;;8.72;100.00;96755.88;5075760;28;20229;-69
2023/01/15 05:36:20;;;;;;;0.20;0.20;;;;;;;8.50;100.00;96748.84;5074720;28;20572;-70
2023/01/15 05:38:47;;;;;;;0.67;0.30;;;;;;;8.43;100.00;96769.38;5074469;28;20195;-70
2023/01/15 05:44:04;;;;;;;0.30;0.30;;;;;;;8.28;100.00;96751.34;5074758;28;20172;-70
2023/01/15 05:46:30;;;;;;;0.40;0.40;;;;;;;8.27;100.00;96756.88;5075109;28;20208;-70
2023/01/15 05:49:01;;;;;;;0.40;0.40;;;;;;;8.23;100.00;96758.41;5074671;28;20204;-70
2023/01/15 05:51:27;;;;;;;0.40;0.40;;;;;;;8.19;100.00;96757.25;5074439;28;20232;-70
2023/01/15 05:53:54;;;;;;;0.50;0.50;;;;;;;8.16;100.00;96755.06;5074541;28;20221;-70
2023/01/15 05:56:20;;;;;;;0.43;0.43;;;;;;;8.09;100.00;96767.59;5074525;28;20211;-70
2023/01/15 05:58:47;;;;;;;0.70;0.60;;;;;;;8.04;100.00;96767.50;5074265;28;20209;-70
2023/01/15 06:01:13;;;;;;;0.50;0.50;;;;;;;7.95;100.00;96776.84;5074465;28;20224;-71
2023/01/15 06:03:40;;;;;;;0.50;0.50;;;;;;;7.92;100.00;96766.75;5074159;28;20675;-70
2023/01/15 06:06:07;;;;;;;0.47;0.47;;;;;;;7.91;100.00;96758.00;5074043;28;20607;-71
2023/01/15 06:08:33;;;;;;;1.17;0.50;;;;;;;7.90;100.00;96768.81;5074096;28;20215;-71
2023/01/15 06:11:00;;;;;;;0.87;0.37;;;;;;;7.85;100.00;96763.41;5074121;28;20200;-70
2023/01/15 06:13:26;;;;;;;0.30;0.30;;;;;;;7.83;100.00;96778.72;5073673;28;20212;-71
2023/01/15 06:15:52;;;;;;;0.40;0.40;;;;;;;7.76;100.00;96768.25;5074121;28;20207;-71
2023/01/15 06:18:19;;;;;;;0.30;0.30;;;;;;;7.76;100.00;96778.03;5074150;28;20205;-71
2023/01/15 06:20:45;;;;;;;0.20;0.20;;;;;;;7.71;100.00;96781.38;5074051;28;20205;-71
2023/01/15 06:23:12;;;;;;;0.27;0.23;;;;;;;7.66;100.00;96777.81;5073609;28;20204;-71
2023/01/15 06:25:38;;;;;;;0.20;0.20;;;;;;;7.66;100.00;96785.75;5073863;28;20215;-70
2023/01/15 06:28:06;;;;;;;0.20;0.20;;;;;;;7.62;100.00;96789.88;5074120;28;20596;-70
2023/01/15 06:30:33;;;;;;;0.20;0.20;;;;;;;7.54;100.00;96788.41;5074025;28;20209;-71
2023/01/15 06:32:59;;;;;;;0.20;0.20;;;;;;;7.55;100.00;96797.94;5073738;28;20224;-71
2023/01/15 06:35:26;;;;;;;0.20;0.20;;;;;;;7.51;100.00;96796.00;5073676;28;20420;-71
2023/01/15 06:37:52;;;;;;;0.20;0.20;;;;;;;7.48;100.00;96801.72;5073809;28;20211;-71
2023/01/15 06:40:20;;;;;;;0.20;0.20;;;;;;;7.43;100.00;96820.13;5073743;28;20231;-70
2023/01/15 06:48:22;;;;;;;0.30;0.30;;;;;;;7.21;100.00;96840.19;5073793;28;20172;-71
2023/01/15 06:50:48;;;;;;;0.20;0.20;;;;;;;7.14;100.00;96850.06;5073597;28;20199;-70
2023/01/15 06:53:14;;;;;;;0.20;0.20;;;;;;;7.05;100.00;96854.06;5073662;28;20227;-70
2023/01/15 06:55:41;;;;;;;0.20;0.20;;;;;;;6.86;100.00;96855.16;5073575;28;20234;-71
2023/01/15 06:58:07;;;;;;;0.20;0.20;;;;;;;6.79;100.00;96865.00;5073678;28;20206;-70
2023/01/15 07:00:34;;;;;;;0.27;0.27;;;;;;;6.78;100.00;96858.13;5073611;28;20205;-71
2023/01/15 07:03:01;;;;;;;0.20;0.20;;;;;;;6.74;100.00;96863.03;5073681;28;20220;-70
2023/01/15 07:05:28;;;;;;;0.20;0.20;;;;;;;6.65;100.00;96884.69;5073511;28;20197;-70
2023/01/15 07:07:54;;;;;;;0.20;0.20;;;;;;;6.62;100.00;96893.06;5073110;28;20205;-70
2023/01/15 07:10:20;;;;;;;0.30;0.30;;;;;;;6.53;100.00;96913.69;5073220;28;20212;-70
2023/01/15 07:12:47;;;;;;;0.23;0.23;;;;;;;6.43;100.00;96912.59;5072949;28;20237;-71
2023/01/15 07:15:13;;;;;;;0.30;0.20;;;;;;;6.36;100.00;96919.75;5073407;28;20231;-70
2023/01/15 07:17:40;;;;;;;0.20;0.20;;;;;;;6.33;100.00;96933.41;5073431;28;20739;-70
2023/01/15 07:20:07;;;;;;;0.20;0.10;;;;;;;6.30;100.00;96944.41;5073358;28;20231;-70
2023/01/15 07:22:33;;;;;;;0.30;0.30;;;;;;;6.22;100.00;96942.03;5072942;28;20704;-70
2023/01/15 07:25:00;;;;;;;0.10;0.10;;;;;;;6.22;100.00;96953.41;5073340;28;20200;-70
2023/01/15 07:27:27;;;;;;;0.17;0.17;;;;;;;6.16;100.00;96954.25;5073031;28;20307;-70
2023/01/15 07:29:54;;;;;;;1.07;0.30;;;;;;;6.16;100.00;96953.47;5073390;28;20207;-70
2023/01/15 07:32:20;;;;;;;0.40;0.20;;;;;;;6.12;100.00;96952.28;5073215;28;20231;-70
2023/01/15 07:34:46;;;;;;;0.27;0.27;;;;;;;6.12;100.00;96970.75;5075561;28;20235;-70
2023/01/15 07:37:13;;;;;;;0.20;0.20;;;;;;;6.10;100.00;96965.69;5076853;28;20211;-70
2023/01/15 07:39:39;;;;;;;0.30;0.30;;;;;;;6.15;100.00;96981.69;5077135;28;20208;-71
2023/01/15 07:50:26;;;;;;;0.20;0.20;;;;;;;6.03;100.00;96972.06;5029305;28;20295;-70
2023/01/15 07:52:52;;;;;;;0.10;0.10;;;;;;;5.98;100.00;96982.47;5076940;28;20230;-71
2023/01/15 07:55:18;;;;;;;0.20;0.20;;;;;;;6.03;100.00;97001.06;5076612;28;20231;-71
2023/01/15 07:57:45;;;;;;;0.10;0.10;;;;;;;6.07;100.00;97016.25;5076593;28;20691;-70
2023/01/15 08:00:14;;;;;;;0.27;0.27;;;;;;;6.07;100.00;97004.91;5076809;28;20227;-71
2023/01/15 08:02:41;;;;;;;0.20;0.20;;;;;;;6.06;100.00;97017.28;5076707;28;20236;-70
2023/01/15 08:05:10;;;;;;;0.10;0.10;;;;;;;6.01;100.00;97029.53;5076698;28;20197;-71
2023/01/15 08:07:39;;;;;;;0.20;0.20;;;;;;;6.03;100.00;97032.72;5076283;28;20308;-70
2023/01/15 08:10:05;;;;;;;0.20;0.20;;;;;;;6.03;100.00;97038.00;5076494;28;20205;-70
2023/01/15 08:15:39;;;;;;;0.20;0.20;;;;;;;6.08;100.00;97049.53;5034267;28;20709;-70
2023/01/15 08:18:06;;;;;;;0.30;0.30;;;;;;;6.06;100.00;97059.50;5069509;28;20212;-70
2023/01/15 08:20:34;;;;;;;0.20;0.20;;;;;;;6.04;100.00;97052.81;5077211;28;20209;-70
2023/01/15 08:23:01;;;;;;;0.20;0.20;;;;;;;6.08;100.00;97051.38;5076275;28;20229;-70
2023/01/15 08:25:27;;;;;;;0.30;0.30;;;;;;;6.09;100.00;97055.59;5076301;28;20196;-71
2023/01/15 08:27:55;;;;;;;0.30;0.30;;;;;;;6.10;100.00;97050.13;5076207;28;20311;-70
2023/01/15 08:30:24;;;;;;;0.20;0.20;;;;;;;6.08;100.00;97046.09;5076214;28;20208;-70
2023/01/15 08:32:52;;;;;;;0.20;0.20;;;;;;;6.12;100.00;97053.38;5075885;28;20228;-71
2023/01/15 08:35:18;;;;;;;0.20;0.20;;;;;;;6.07;100.00;97068.22;5076084;28;20225;-71
2023/01/15 08:37:45;;;;;;;0.30;0.20;;;;;;;6.06;100.00;97069.25;5076058;28;20212;-71
2023/01/15 08:40:12;;;;;;;0.30;0.30;;;;;;;6.02;100.00;97060.16;5075642;28;20646;-71
2023/01/15 08:42:39;;;;;;;0.30;0.30;;;;;;;6.02;100.00;97066.22;5075461;28;20712;-70
2023/01/15 08:45:06;;;;;;;1.60;0.33;;;;;;;5.99;100.00;97069.28;5075464;28;20277;-71
2023/01/15 08:47:32;;;;;;;0.30;0.30;;;;;;;6.02;100.00;97081.25;5075903;28;20274;-70
2023/01/15 08:49:59;;;;;;;0.20;0.20;;;;;;;6.05;100.00;97094.81;5075869;28;20211;-70
2023/01/15 08:52:25;;;;;;;0.23;0.23;;;;;;;5.98;100.00;97101.16;5075413;28;20711;-70
2023/01/15 08:54:52;;;;;;;0.20;0.20;;;;;;;6.00;100.00;97105.19;5075315;28;20714;-71
2023/01/15 08:57:18;;;;;;;0.20;0.20;;;;;;;5.94;100.00;97113.97;5075436;28;20566;-71
2023/01/15 08:59:44;;;;;;;0.30;0.30;;;;;;;5.93;100.00;97119.47;5075760;28;20207;-71
2023/01/15 09:02:14;;;;;;;0.27;0.27;;;;;;;5.90;100.00;97133.06;5075598;28;20240;-70
2023/01/15 09:04:40;;;;;;;0.20;0.20;;;;;;;5.93;100.00;97137.91;5075314;28;20219;-71
2023/01/15 09:07:06;;;;;;;0.27;0.20;;;;;;;5.92;100.00;97139.75;5075565;28;20205;-71
2023/01/15 09:09:34;;;;;;;0.20;0.20;;;;;;;5.95;100.00;97144.59;5075287;28;20201;-71
2023/01/15 09:12:00;;;;;;;0.37;0.23;;;;;;;5.99;100.00;97147.63;5075215;28;20255;-71
2023/01/15 09:14:27;;;;;;;0.30;0.30;;;;;;;5.99;100.00;97139.69;5075340;28;20242;-71
2023/01/15 09:16:53;;;;;;;0.33;0.33;;;;;;;5.99;100.00;97137.06;5075331;28;20212;-71
2023/01/15 09:19:19;;;;;;;0.30;0.30;;;;;;;6.01;100.00;97153.50;5074950;28;20220;-71
2023/01/15 09:21:46;;;;;;;0.30;0.30;;;;;;;6.05;100.00;97162.59;5074932;28;20232;-71
2023/01/15 09:24:12;;;;;;;0.40;0.30;;;;;;;6.08;100.00;97172.72;5075188;28;20204;-71
2023/01/15 09:26:40;;;;;;;0.30;0.30;;;;;;;6.04;100.00;97166.25;5075128;28;20212;-71
2023/01/15 09:29:07;;;;;;;0.20;0.20;;;;;;;6.03;100.00;97177.84;5075128;28;20204;-71
2023/01/15 09:31:34;;;;;;;0.30;0.30;;;;;;;6.03;100.00;97191.03;5075006;28;20225;-70
2023/01/15 09:34:00;;;;;;;0.30;0.30;;;;;;;6.04;100.00;97204.00;5075051;28;20209;-71
2023/01/15 09:36:29;;;;;;;0.20;0.20;;;;;;;6.02;100.00;97213.94;5074896;28;20232;-70
2023/01/15 09:38:57;;;;;;;0.30;0.30;;;;;;;5.98;100.00;97211.94;5074929;28;20205;-71
2023/01/15 09:44:37;;;;;;;1.07;0.30;;;;;;;6.10;100.00;97202.38;5074570;28;20681;-71
2023/01/15 09:47:27;;;;;;;0.30;0.30;;;;;;;6.08;100.00;97205.22;5074765;28;20200;-71
2023/01/15 09:50:00;;;;;;;0.27;0.27;;;;;;;6.13;100.00;97212.47;5074689;28;20197;-70
2023/01/15 09:52:50;;;;;;;0.30;0.30;;;;;;;6.31;100.00;97215.22;5074205;28;20224;-71
2023/01/15 09:55:19;;;;;;;0.30;0.30;;;;;;;6.22;100.00;97219.13;5074507;28;20587;-71
2023/01/15 09:57:51;;;;;;;0.40;0.40;;;;;;;6.16;100.00;97227.91;5073670;28;20204;-71
2023/01/15 10:00:26;;;;;;;0.30;0.30;;;;;;;6.24;100.00;97231.09;5074466;28;20554;-71
2023/01/15 10:03:02;;;;;;;0.67;0.40;;;;;;;6.23;100.00;97234.75;5074003;28;20235;-71
2023/01/15 10:05:35;;;;;;;0.43;0.43;;;;;;;6.11;100.00;97238.28;5072953;28;20605;-71
2023/01/15 10:08:04;;;;;;;0.40;0.40;;;;;;;6.09;100.00;97261.41;5074363;28;20294;-71
2023/01/15 10:10:41;;;;;;;0.30;0.30;;;;;;;6.09;100.00;97249.03;5074272;28;20204;-70
2023/01/15 10:13:34;;;;;;;0.50;0.50;;;;;;;6.03;100.00;97246.44;5073877;28;20753;-71
2023/01/15 10:16:00;;;;;;;0.37;0.37;;;;;;;5.92;100.00;97247.09;5072839;28;20209;-71
2023/01/15 10:18:28;;;;;;;0.30;0.30;;;;;;;5.89;100.00;97250.13;5074064;28;20204;-71
2023/01/15 10:21:16;;;;;;;0.20;0.20;;;;;;;5.91;100.00;97253.38;5073886;28;20211;-71
2023/01/15 10:23:42;;;;;;;0.30;0.30;;;;;;;5.74;100.00;97260.91;5073820;28;20195;-70
2023/01/15 10:26:16;;;;;;;0.30;0.30;;;;;;;5.81;100.00;97263.56;5073758;28;20197;-71
2023/01/15 10:29:17;;;;;;;0.30;0.30;;;;;;;5.85;100.00;97267.41;5073884;28;20201;-71
2023/01/15 10:32:00;;;;;;;0.50;0.30;;;;;;;5.64;100.00;97284.25;5073852;28;20220;-71
2023/01/15 10:34:45;;;;;;;0.40;0.37;;;;;;;5.74;100.00;97284.63;5073500;28;20189;-70
2023/01/15 10:37:34;;;;;;;0.50;0.40;;;;;;;5.78;100.00;97290.31;5073840;28;20251;-70
2023/01/15 10:40:16;;;;;;;0.20;0.20;;;;;;;5.66;100.00;97284.06;5073662;28;20196;-70
2023/01/15 10:42:58;;;;;;;0.50;0.43;;;;;;;5.57;100.00;97288.72;5072980;28;20233;-70
2023/01/15 10:45:35;;;;;;;0.20;0.20;;;;;;;5.43;100.00;97291.63;5072478;28;20185;-70
2023/01/15 10:48:31;;;;;;;0.20;0.20;;;;;;;5.34;100.00;97295.47;5072475;28;20561;-70
2023/01/15 10:51:03;;;;;;;0.30;0.30;;;;;;;5.33;100.00;97307.03;5072137;28;20213;-71
2023/01/15 10:53:45;;;;;;;0.30;0.30;;;;;;;5.24;100.00;97295.09;5073283;28;20192;-70
2023/01/15 10:56:21;;;;;;;0.70;0.40;;;;;;;5.10;100.00;97317.16;5073176;28;20209;-70
2023/01/15 10:58:57;;;;;;;0.30;0.23;;;;;;;5.14;100.00;97324.47;5073780;28;20230;-70
2023/01/15 11:01:27;;;;;;;0.30;0.30;;;;;;;4.93;100.00;97306.19;5072073;28;20224;-70
2023/01/15 11:03:54;;;;;;;0.23;0.23;;;;;;;4.91;100.00;97307.41;5073054;28;20299;-70
2023/01/15 11:06:22;;;;;;;0.40;0.40;;;;;;;4.91;100.00;97310.88;5073326;28;20197;-70
2023/01/15 11:08:56;;;;;;;0.83;0.33;;;;;;;4.78;100.00;97317.94;5073204;28;20569;-71
2023/01/15 11:20:01;;;;;;;0.30;0.30;;;;;;;4.70;100.00;97344.47;5073403;28;20187;-71
2023/01/15 11:22:28;;;;;;;0.30;0.30;;;;;;;4.73;100.00;97346.69;5071958;28;20235;-70
2023/01/15 11:24:58;;;;;;;0.30;0.30;;;;;;;4.64;100.00;97350.50;5073514;28;20636;-70
2023/01/15 11:27:32;;;;;;;0.30;0.30;;;;;;;4.50;100.00;97343.59;5073002;28;20193;-70
2023/01/15 11:30:02;;;;;;;0.30;0.30;;;;;;;4.57;100.00;97357.59;5073273;28;20189;-71
2023/01/15 11:32:31;;;;;;;0.40;0.40;;;;;;;4.50;100.00;97362.00;5073233;28;20565;-70
2023/01/15 11:35:00;;;;;;;0.30;0.30;;;;;;;4.41;100.00;97360.56;5072861;28;20274;-70
2023/01/15 11:37:27;;;;;;;0.30;0.30;;;;;;;4.35;100.00;97361.38;5073093;28;20200;-70
2023/01/15 11:40:04;;;;;;;0.67;0.30;;;;;;;4.28;100.00;97371.84;5072683;28;20212;-70
2023/01/15 11:51:17;;;;;;;1.30;0.50;;;;;;;4.30;100.00;97355.88;5039325;28;20338;-70
2023/01/15 11:53:49;;;;;;;0.30;0.30;;;;;;;4.15;100.00;97355.19;5073594;28;20189;-70
2023/01/15 11:56:36;;;;;;;0.30;0.30;;;;;;;4.24;100.00;97361.91;5072768;28;20216;-70
2023/01/15 11:59:08;;;;;;;1.20;0.30;;;;;;;4.28;100.00;97365.78;5072654;28;20189;-70
2023/01/15 12:01:58;;;;;;;0.63;0.37;;;;;;;4.40;100.00;97361.59;5072401;28;20231;-70
2023/01/15 12:04:25;;;;;;;0.20;0.20;;;;;;;4.39;100.00;97373.13;5072396;28;20296;-71
2023/01/15 12:06:51;;;;;;;0.30;0.30;;;;;;;4.16;100.00;97362.09;5072732;28;20197;-70
2023/01/15 12:09:38;;;;;;;0.20;0.20;;;;;;;4.31;100.00;97374.09;5071212;28;20219;-70
2023/01/15 12:12:26;;;;;;;0.30;0.30;;;;;;;4.24;100.00;97360.09;5071922;28;20723;-70
2023/01/15 12:15:08;;;;;;;1.00;0.60;;;;;;;4.38;100.00;97366.25;5071662;28;20212;-70
2023/01/15 12:18:01;;;;;;;1.27;0.60;;;;;;;4.39;100.00;97373.13;5073367;28;20184;-70
2023/01/15 12:21:00;;;;;;;1.03;0.40;;;;;;;4.32;100.00;97380.97;5073128;28;20208;-70
2023/01/15 12:23:27;;;;;;;1.60;0.40;;;;;;;4.40;100.00;97372.09;5063845;28;20205;-70
2023/01/15 12:26:16;;;;;;;0.40;0.40;;;;;;;4.43;100.00;97369.88;5075932;28;20196;-71
2023/01/15 12:29:12;;;;;;;1.07;0.73;;;;;;;4.31;100.00;97373.28;5076023;28;20185;-70
2023/01/15 12:31:43;;;;;;;0.53;0.30;;;;;;;4.32;100.00;97370.47;5074867;28;20238;-71
2023/01/15 12:34:26;;;;;;;0.20;0.20;;;;;;;4.40;100.00;97357.16;5076100;28;20560;-71
2023/01/15 12:37:09;;;;;;;0.80;0.23;;;;;;;4.45;100.00;97346.84;5076545;28;20212;-71
2023/01/15 12:39:46;;;;;;;0.20;0.20;;;;;;;4.53;100.00;97341.38;5074946;28;20530;-71
2023/01/15 12:45:09;;;;;;;0.57;0.30;;;;;;;4.41;100.00;97348.22;5075971;28;20173;-70